Terminal Aerodrome Forecast
Issued by NWS Sioux Falls, SD

Home | Current Version | Previous Version | Text Only | Print | Product List | Glossary On
Versions: 1 2 3 4 5 6 7 8 9 10 11 12 13 14 15 16 17 18
000
FTUS43 KFSD 300521
TAFSUX
TAF
KSUX 300521Z 3006/3106 07016G24KT P6SM -RA OVC015
     FM300800 03013KT P6SM OVC008
     FM301600 02013KT P6SM OVC010
     FM310300 03008KT P6SM BKN015=

USA.gov is the U.S. government's official web portal to all federal, state and local government web resources and services.